Henry B. Bigelow — WTDF — position and weather

sailwx.info

Track history (hours):
 
Tides and Currents Weather Stations Pressure Air Temp Water Temp Dewpoint Dewpoint Depression Visibility Wind Speed Wind Dir Waves Ship Positions

Oceanographic research ship Henry B. Bigelow (USA)

Ship's website: http://www.moc.noaa.gov/hb/

Last reported at 2019-Apr-18 20:00 UTC. Time now 2019-Apr-18 20:35 UTC.
Position N 40°30' W 067°30'.

Type: Other ship. MMSI: 369991000.

Wind from 140 at 16 knots

Barometer 1025.5 mb
Air temperature 7.7 ° C
Dewpoint 4.1 ° C
Water temperature 5.5 ° C

Date/timePositionNaut miles runAvg speedWind from/ knotsBaromVisibWave heightAir tempDewpointWater temp
2019-Apr-18 20:00N 40°30' W 067°30'1312.8 140 / 161025.5 7.7 4.1 5.5
2019-Apr-18 19:00N 40°42' W 067°24'0 0.0 150 / 161026.0 6.7 3.7 5.6
2019-Apr-18 18:00N 40°42' W 067°24'6 6.0 150 / 141026.7 6.6 3.5 5.7
2019-Apr-18 17:00N 40°48' W 067°24'6 6.0 130 / 141027.1 6.1 2.8 5.7
2019-Apr-18 16:00N 40°54' W 067°24'0 0.0 120 / 131028.0 6.1 2.7 5.7
2019-Apr-18 15:00N 40°54' W 067°24'1312.8 120 / 91028.7 4.9 2.1 5.6
2019-Apr-18 14:00N 41°06' W 067°30'1515.0 120 / 81028.4 4.7 2.2 5.7
2019-Apr-18 13:00N 41°18' W 067°42'0 0.0 120 / 61027.9 5.1 1.4 6.5
2019-Apr-18 12:00N 41°18' W 067°42'0 0.0 140 / 61027.8 5.4 1.3 6.5
2019-Apr-18 11:00N 41°18' W 067°42'5 4.5 160 / 41027.7 5.1 1.5 6.6
2019-Apr-18 10:00N 41°18' W 067°48'0 0.0 190 / 41027.2 4.8 1.6 6.6
2019-Apr-18 09:00N 41°18' W 067°48'1312.8 230 / 51026.5 4.7 1.7 6.6
2019-Apr-18 08:00N 41°06' W 067°54'1212.0 230 / 61026.1 4.6 1.2 6.3
2019-Apr-18 07:00N 40°54' W 067°54'6 6.0 210 / 61026.0 4.4 1.5 6.1
2019-Apr-18 06:00N 40°48' W 067°54'8 7.5 200 / 61026.1 5.6 1.5 5.8
2019-Apr-18 05:00N 40°54' W 068°00'0 0.0 220 / 111026.1 4.6 1.1 6.0
2019-Apr-18 04:00N 40°54' W 068°00'1515.0 200 / 101025.8 4.6 0.7 6.1
2019-Apr-18 03:00N 41°06' W 068°12'8 7.5 190 / 101025.1 4.7 1.3 6.2
2019-Apr-18 02:00N 41°12' W 068°18'0 0.0 170 / 61024.8 5.6 1.9 6.3
2019-Apr-18 01:00N 41°12' W 068°18'8 7.5 150 / 41024.6 5.3 1.2 6.3
2019-Apr-18 00:00N 41°06' W 068°24'0 0.0 060 / 21024.2 4.9 1.3 6.4
2019-Apr-17 23:00N 41°06' W 068°24'0 0.0 030 / 71023.5 6.0 0.9 6.4
2019-Apr-17 22:00N 41°06' W 068°24'8 7.5 020 / 111023.1 6.5 0.2 6.4
2019-Apr-17 21:00N 41°12' W 068°30'1110.8 010 / 111022.7 6.3-0.3 6.2
2019-Apr-17 20:00N 41°18' W 068°42'1110.8 350 / 91022.6 6.9 1.1 6.7
2019-Apr-17 19:00N 41°24' W 068°54'7 7.5 350 / 111022.0 6.8 2.1 6.3
2019-Apr-17 18:00N 41°30' W 069°00'1110.8 330 / 91022.0 6.6 2.3 6.4
2019-Apr-17 17:00N 41°36' W 069°12'1110.8 330 / 101021.3 6.9 2.6 6.1
2019-Apr-17 16:00N 41°42' W 069°24'6 6.0 340 / 121020.9 6.7 2.2 5.9
2019-Apr-17 15:00N 41°48' W 069°24'4 4.5 340 / 131020.6 5.5 1.7 5.8
2019-Apr-17 14:00N 41°48' W 069°30'4 4.5 310 / 121020.2 5.5 1.5 5.6
2019-Apr-17 13:00N 41°48' W 069°36'4 4.5 320 / 131019.8 5.9 1.3 5.6
2019-Apr-17 12:00N 41°48' W 069°42'0 0.0 330 / 141019.4 5.3 0.4 5.4
2019-Apr-17 11:00N 41°48' W 069°42'6 6.0 330 / 71018.8 7.1 0.4 5.4
2019-Apr-17 10:00N 41°54' W 069°42'0 0.0 310 / 171017.8 5.2 1.0 5.5
2019-Apr-17 09:00N 41°54' W 069°42'0 0.0 300 / 161017.4 5.3 0.6 5.5
2019-Apr-17 08:00N 41°54' W 069°42'4 4.5 300 / 201016.7 5.4 0.7 5.5
2019-Apr-17 07:00N 41°54' W 069°48'0 0.0 310 / 141016.8 8.5 0.5 5.3
2019-Apr-17 06:00N 41°54' W 069°48'7 7.5 290 / 161016.5 5.6-0.5 5.1
2019-Apr-17 05:00N 42°00' W 069°54'7 7.5 310 / 111016.4 6.4 0.5 5.0
2019-Apr-17 04:00N 42°06' W 070°00'0 0.0 320 / 121016.0 5.1 0.7 5.0
2019-Apr-17 03:00N 42°06' W 070°00'0 0.0 330 / 171015.3 8.1 0.4 5.0
2019-Apr-17 02:00N 42°06' W 070°00'7 7.5 350 / 231014.1 6.5 0.4 5.0
2019-Apr-17 01:00N 42°12' W 070°06'6 6.0 360 / 191013.4 6.2 1.1 5.1
2019-Apr-17 00:00N 42°06' W 070°06'0 0.0 1012.1 6.8-0.0 5.4
2019-Apr-16 23:00N 42°06' W 070°06'4 4.5 330 / 101011.4 8.2-2.0 5.7
2019-Apr-16 22:00N 42°06' W 070°12'6 6.0 020 / 61011.2 7.7-0.6 5.3
2019-Apr-16 21:00N 42°00' W 070°12'0 0.0 330 / 71010.6 8.6 0.1 7.1
2019-Apr-16 20:00N 42°00' W 070°12'1110.8 330 / 111010.2 8.4-0.7 7.2
2019-Apr-16 19:00N 41°54' W 070°24'0 0.0 300 / 101010.5 8.4-0.6 6.1
2019-Apr-16 18:00N 41°54' W 070°24'6 6.0 300 / 161010.5 8.9-2.1 6.1
2019-Apr-16 17:00N 41°48' W 070°24'4 4.5 320 / 141010.6 7.9-2.7 5.8
2019-Apr-16 16:00N 41°48' W 070°18'0 0.0 300 / 161010.7 6.4-2.0 5.7
2019-Apr-16 15:00N 41°48' W 070°18'6 6.0 310 / 171010.6 6.0-1.8 5.7
2019-Apr-16 14:00N 41°54' W 070°18'0 0.0 300 / 181009.9 5.7-2.7 5.6
2019-Apr-16 13:00N 41°54' W 070°18'0 0.0 290 / 281008.6 5.8-2.4 5.5
2019-Apr-16 12:00N 41°54' W 070°18'6 6.0 300 / 241008.0 4.8-2.4 5.5
2019-Apr-16 11:00N 42°00' W 070°18'7 7.5 300 / 291007.1 5.2-2.2 5.3
2019-Apr-16 10:00N 42°06' W 070°12'9 8.9 300 / 271005.5 5.1-1.5 5.2
2019-Apr-16 09:00N 42°06' W 070°00'1312.8 290 / 291004.2 5.1-1.5 5.0
2019-Apr-16 08:00N 41°54' W 069°54'4 4.5 300 / 261003.4 5.6-1.5 5.5
2019-Apr-16 07:00N 41°54' W 069°48'0 0.0 290 / 131002.8 6.1-1.3 5.5
2019-Apr-16 06:00N 41°54' W 069°48'0 0.0 290 / 271001.5 5.9-1.0 5.6
2019-Apr-16 05:00N 41°54' W 069°48'7 7.5 280 / 261000.8 6.2-0.3 5.6
2019-Apr-16 04:00N 42°00' W 069°54'4 4.5 290 / 25999.9 6.5-0.1 5.7
2019-Apr-16 03:00N 42°00' W 070°00'0 0.0 270 / 25999.0 7.0 0.8 5.8
2019-Apr-16 02:00N 42°00' W 070°00'0 0.0 290 / 25997.6 7.4 0.8 5.6
2019-Apr-16 01:00N 42°00' W 070°00'7 7.5 290 / 22996.4 8.4 2.0 5.6
2019-Apr-16 00:00N 41°54' W 069°54'6 6.0 280 / 31993.9 9.5 1.7 5.5
2019-Apr-15 23:00N 42°00' W 069°54'6 6.0 280 / 31992.5 10.2 5.4 5.7
2019-Apr-15 22:00N 41°54' W 069°54'0 0.0 270 / 19990.9 10.5 8.2 5.5
2019-Apr-15 21:00N 41°54' W 069°54'0 0.0 250 / 23989.2 11.710.4 5.5
2019-Apr-15 20:00N 41°54' W 069°54'0 0.0 250 / 20989.8 13.411.9 5.6
2019-Apr-15 19:00N 41°54' W 069°54'0 0.0 230 / 26990.2 13.012.6 5.6
2019-Apr-15 18:00N 41°54' W 069°54'0 0.0 210 / 21990.6 12.6 6.2
2019-Apr-15 17:00N 41°54' W 069°54'0 0.0 250 / 13991.4 11.5 5.9
2019-Apr-15 16:00N 41°54' W 069°54'0 0.0 160 / 8990.7 8.8 5.5
2019-Apr-15 15:00N 41°54' W 069°54'6 6.0 140 / 31991.3 8.5 5.6
2019-Apr-15 14:00N 41°48' W 069°54'0 0.0 120 / 15994.8 10.1 5.5
2019-Apr-15 13:00N 41°48' W 069°54'0 0.0 310 / 19997.2 11.3 5.6
2019-Apr-15 12:00N 41°48' W 069°54'0 0.0 190 / 27993.9 10.3 5.6
2019-Apr-15 11:00N 41°48' W 069°54'6 6.0 190 / 25995.4 11.2 5.5
2019-Apr-15 10:00N 41°42' W 069°54'0 0.0 190 / 24996.9 10.6 5.2
2019-Apr-15 09:00N 41°42' W 069°54'6 6.0 200 / 17998.0 9.3 5.4
2019-Apr-15 08:00N 41°48' W 069°54'7 7.5 190 / 15999.3 9.3 5.7
2019-Apr-15 07:00N 41°42' W 069°48'1515.0 180 / 211001.1 8.2 5.3
2019-Apr-15 06:00N 41°30' W 069°36'6 6.0 180 / 241002.3 9.1 5.1
2019-Apr-15 05:00N 41°24' W 069°36'0 0.0 200 / 241004.1 9.6 5.2
2019-Apr-15 04:00N 41°24' W 069°36'0 0.0 180 / 201005.3 8.9 5.2
2019-Apr-15 03:00N 41°24' W 069°36'9 9.0 180 / 181006.3 8.8 5.2
2019-Apr-15 02:00N 41°24' W 069°24'5 4.5 180 / 151007.9 7.8 5.3
2019-Apr-15 01:00N 41°24' W 069°18'0 0.0 180 / 181008.9 8.5 6.1
2019-Apr-15 00:00N 41°24' W 069°18'6 6.0 180 / 151009.7 8.8 5.8
2019-Apr-14 23:00N 41°18' W 069°18'8 7.5 180 / 171010.1 8.8 5.5
2019-Apr-14 22:00N 41°12' W 069°24'0 0.0 160 / 171010.8 8.1 5.4
2019-Apr-14 21:00N 41°12' W 069°24'0 0.0 170 / 121011.5 9.9 5.4
2019-Apr-14 20:00N 41°12' W 069°24'0 0.0 170 / 141012.3 9.2 5.3
2019-Apr-14 19:00N 41°12' W 069°24'0 0.0 180 / 61013.5 7.5 5.5
2019-Apr-14 18:00N 41°12' W 069°24'0 0.0 210 / 71014.2 6.8 5.6
2019-Apr-14 17:00N 41°12' W 069°24'6 6.0 220 / 101014.7 6.2 5.4
2019-Apr-14 16:00N 41°06' W 069°24'0 0.0 190 / 91015.1 7.6 5.4
2019-Apr-14 15:00N 41°06' W 069°24'6 6.0 270 / 21015.9 7.0 5.4
2019-Apr-14 14:00N 41°12' W 069°24'0 0.0 220 / 61015.9 6.1 5.4
2019-Apr-14 13:00N 41°12' W 069°24'0 0.0 240 / 91016.1 6.0 5.4
2019-Apr-14 12:00N 41°12' W 069°24'8 7.5 230 / 111016.3 5.6 5.3
2019-Apr-14 11:00N 41°06' W 069°18'0 0.0 220 / 141016.3 5.9 5.4
2019-Apr-14 10:00N 41°06' W 069°18'0 0.0 230 / 121015.6 6.4 5.4
2019-Apr-14 09:00N 41°06' W 069°18'8 7.5 250 / 121015.0 6.6 5.4
2019-Apr-14 08:00N 41°12' W 069°12'8 7.5 250 / 131015.2 6.6 5.4
2019-Apr-14 07:00N 41°18' W 069°06'0 0.0 240 / 171015.2 7.0 5.5
2019-Apr-14 06:00N 41°18' W 069°06'1312.8 240 / 181015.7 7.0 5.5
2019-Apr-14 05:00N 41°06' W 069°00'5 4.5 220 / 151016.3 6.7 5.9
2019-Apr-14 04:00N 41°06' W 068°54'6 6.0 240 / 141016.6 7.8 5.8
2019-Apr-14 03:00N 41°12' W 068°54'5 4.5 210 / 161016.7 8.1 6.2
2019-Apr-14 02:00N 41°12' W 068°48'0 0.0 210 / 151017.4 7.8 6.1
2019-Apr-14 01:00N 41°12' W 068°48'1312.8 210 / 221017.5 8.1 5.7
2019-Apr-14 00:00N 41°00' W 068°42'8 7.5 220 / 181018.3 7.6 7.6 5.9
2019-Apr-13 23:00N 40°54' W 068°36'5 4.5 200 / 221018.1 8.7 8.7 5.9
2019-Apr-13 22:00N 40°54' W 068°30'1212.0 210 / 221018.7 9.2 9.1 5.8
2019-Apr-13 21:00N 40°42' W 068°30'6 6.0 200 / 201019.3 13.011.1 5.7
2019-Apr-13 20:00N 40°36' W 068°30'5 4.6 190 / 201019.6 9.0 9.0 5.8
2019-Apr-13 19:00N 40°36' W 068°24'5 4.6 180 / 201020.1 8.9 8.8 5.8
2019-Apr-13 18:00N 40°36' W 068°18'5 4.6 180 / 201021.1 9.4 9.4 5.9
2019-Apr-13 17:00N 40°36' W 068°24'8 7.5 190 / 181022.0 9.4 9.1 5.9
2019-Apr-13 16:00N 40°30' W 068°18'0 0.0 180 / 191023.3 9.8 9.4 5.5
2019-Apr-13 15:00N 40°30' W 068°18'6 6.0 190 / 181023.7 9.3 9.0 5.4
2019-Apr-13 14:00N 40°24' W 068°18'6 6.0 180 / 161024.5 10.4 9.9 5.1
2019-Apr-13 13:00N 40°18' W 068°18'0 0.0 180 / 171024.9 10.710.4 8.1
2019-Apr-13 12:00N 40°18' W 068°18'6 6.0 190 / 141025.1 10.510.2 8.0
2019-Apr-13 11:00N 40°12' W 068°18'8 7.5 200 / 131024.9 11.110.8 7.7
2019-Apr-13 10:00N 40°18' W 068°24'1110.9 200 / 171024.3 10.510.5 8.1
2019-Apr-13 09:00N 40°12' W 068°36'8 7.5 210 / 171023.8 8.4 8.4 5.2
2019-Apr-13 08:00N 40°18' W 068°42'0 0.0 190 / 171024.1 9.0 9.0 5.4
2019-Apr-13 07:00N 40°18' W 068°42'1312.8 200 / 171023.8 8.8 8.8 5.4
2019-Apr-13 06:00N 40°30' W 068°36'8 7.5 200 / 181023.9 8.3 8.3 5.7
2019-Apr-13 05:00N 40°36' W 068°42'9 9.1 200 / 201024.4 8.3 8.3 5.8
2019-Apr-13 04:00N 40°36' W 068°54'1110.9 190 / 171024.3 7.9 7.9 5.9
2019-Apr-13 03:00N 40°42' W 069°06'0 0.0 180 / 171024.5 8.0 7.9 5.7
2019-Apr-13 02:00N 40°42' W 069°06'8 7.5 180 / 161024.9 8.0 7.4 5.8
2019-Apr-13 01:00N 40°48' W 069°00'5 4.5 160 / 151025.3 7.6 6.9 5.7
2019-Apr-13 00:00N 40°48' W 069°06'5 4.5 190 / 151025.8 7.1 6.8 5.7
2019-Apr-12 23:00N 40°48' W 069°12'8 7.5 180 / 161025.3 6.7 6.5 5.6
2019-Apr-12 22:00N 40°42' W 069°18'6 6.0 170 / 111025.6 6.9 6.3 5.6
2019-Apr-12 21:00N 40°36' W 069°18'6 6.0 170 / 131026.1 8.5 6.6 5.9
2019-Apr-12 20:00N 40°30' W 069°18'0 0.0 170 / 121026.8 6.9 5.4 6.1
2019-Apr-12 19:00N 40°30' W 069°18'0 0.0 140 / 111027.4 6.2 4.7 6.1
2019-Apr-12 18:00N 40°30' W 069°18'9 9.1 130 / 111028.1 5.6 4.1 6.0
2019-Apr-12 17:00N 40°30' W 069°30'5 4.6 150 / 121028.2 5.4 3.7 5.9
2019-Apr-12 16:00N 40°30' W 069°36'0 0.0 140 / 141028.6 5.2 3.0 5.9
2019-Apr-12 15:00N 40°30' W 069°36'6 6.0 130 / 111029.0 5.1 2.6 5.9
2019-Apr-12 14:00N 40°36' W 069°36'0 0.0 110 / 111029.1 4.8 1.4 5.7
2019-Apr-12 13:00N 40°36' W 069°36'5 4.6 130 / 91029.0 4.8 0.8 5.8
2019-Apr-12 12:00N 40°36' W 069°42'6 6.0 120 / 71028.9 5.1-0.5 5.9
2019-Apr-12 11:00N 40°30' W 069°42'8 7.5 150 / 91028.5 4.8-0.4 5.9
2019-Apr-12 10:00N 40°24' W 069°48'0 0.0 130 / 91028.0 4.8-1.3 6.0
2019-Apr-12 09:00N 40°24' W 069°48'5 4.6 130 / 81027.8 5.2-1.0 6.1
2019-Apr-12 08:00N 40°24' W 069°54'6 6.0 140 / 61027.8 4.7-0.9 6.2
2019-Apr-12 07:00N 40°30' W 069°54'1312.8 190 / 51027.3 4.7-1.0 5.9
2019-Apr-12 06:00N 40°42' W 070°00'5 4.5 220 / 61027.3 4.4-2.0 6.0
2019-Apr-12 05:00N 40°42' W 070°06'0 0.0 200 / 31027.7 4.4-2.5 5.9
2019-Apr-12 04:00N 40°42' W 070°06'1110.9 190 / 51026.9 4.3-2.2 6.1
2019-Apr-12 03:00N 40°36' W 070°18'8 7.5 180 / 21027.6 4.8-2.9 6.0
2019-Apr-12 02:00N 40°30' W 070°12'1110.9 230 / 51027.4 4.4-3.4 6.0
2019-Apr-12 01:00N 40°36' W 070°24'1110.9 180 / 51026.5 4.4-3.6 6.2
2019-Apr-12 00:00N 40°42' W 070°36'8 7.5 230 / 51026.5 4.7-2.5 6.0
2019-Apr-11 23:00N 40°36' W 070°30'1515.1 270 / 61026.1 4.4-3.2 6.1
2019-Apr-11 22:00N 40°48' W 070°42'6 6.0 240 / 111025.2 4.4-3.0 5.8
2019-Apr-11 21:00N 40°42' W 070°42'8 7.5 250 / 91024.7 4.0-4.4 6.1
2019-Apr-11 20:00N 40°48' W 070°48'1110.9 260 / 81024.6 3.9-5.5 6.0
2019-Apr-11 19:00N 40°54' W 071°00'8 7.5 250 / 81024.5 4.0-6.0 6.5
2019-Apr-11 18:00N 41°00' W 071°06'1110.9 240 / 61024.3 4.0-5.8 6.9
2019-Apr-11 17:00N 41°06' W 071°18'1312.8 220 / 51024.4 4.0-6.3 6.8
2019-Apr-11 16:00N 41°18' W 071°24'6 6.0 220 / 41024.2 4.8-7.2 6.8
2019-Apr-11 15:00N 41°24' W 071°24'9 9.7 010 / 41024.2 5.9-8.5 6.9
2019-Apr-11 14:06N 41°32' W 071°19'218.5
2019-Apr-11 14:00N 41°30' W 071°18'0 0.0 350 / 71024.1 4.7-6.9
2019-Apr-11 12:00N 41°30' W 071°18'226.8 280 / 81023.2 6.2-5.1
2019-Apr-11 11:55N 41°32' W 071°19'0 0.0
2019-Apr-11 11:19N 41°32' W 071°19'2 6.1
2019-Apr-11 11:00N 41°30' W 071°18'227.1 270 / 61022.7 3.5-5.4
2019-Apr-11 10:55N 41°32' W 071°19'0 0.0
2019-Apr-11 10:25N 41°32' W 071°19'2 4.7
2019-Apr-11 10:00N 41°30' W 071°18'2 3.5 260 / 31021.3 1.8-5.7
2019-Apr-11 09:25N 41°32' W 071°19'2 4.7
2019-Apr-11 09:00N 41°30' W 071°18'226.8 340 / 121020.0 2.6-5.0
2019-Apr-11 08:55N 41°32' W 071°19'0 0.0
2019-Apr-11 08:19N 41°32' W 071°19'2 6.1
2019-Apr-11 08:00N 41°30' W 071°18'226.9 350 / 171019.1 2.6-5.0
2019-Apr-11 07:55N 41°32' W 071°19'2 2.2
2019-Apr-11 07:00N 41°30' W 071°18'227.0 350 / 161019.2 2.4-4.2
2019-Apr-11 06:55N 41°32' W 071°19'2 2.2
2019-Apr-11 06:00N 41°30' W 071°18'2 5.3 350 / 151019.1 2.6-4.5
2019-Apr-11 05:37N 41°32' W 071°19'0 0.0
2019-Apr-11 05:25N 41°32' W 071°19'2 4.7
2019-Apr-11 05:00N 41°30' W 071°18'2 7.3 330 / 201018.9 2.6-5.3
2019-Apr-11 04:43N 41°32' W 071°19'0 0.0
2019-Apr-11 04:13N 41°32' W 071°19'2 8.9
2019-Apr-11 04:00N 41°30' W 071°18'0 0.0 360 / 231018.2 2.6-5.0
2019-Apr-11 03:00N 41°30' W 071°18'227.0 360 / 231017.0 3.2-3.5
2019-Apr-11 02:55N 41°32' W 071°19'2 2.2
2019-Apr-11 02:00N 41°30' W 071°18'2 4.2 1016.3 4.6-2.9
2019-Apr-11 01:31N 41°32' W 071°19'2 3.8
2019-Apr-11 01:00N 41°30' W 071°18'0 0.0 350 / 141015.5 5.3-2.9
2019-Apr-11 00:00N 41°30' W 071°18'2 3.0 010 / 131014.0 6.1-1.2
2019-Apr-10 23:19N 41°32' W 071°19'2 6.2
2019-Apr-10 23:00N 41°30' W 071°18'2 3.0 350 / 151012.9 6.7-2.0
2019-Apr-10 22:19N 41°32' W 071°19'2 6.2
2019-Apr-10 22:00N 41°30' W 071°18'0 0.0 350 / 161012.2 7.1-1.6
2019-Apr-10 21:00N 41°30' W 071°18'0 0.0 350 / 191011.1 7.5-0.8
2019-Apr-10 20:00N 41°30' W 071°18'0 0.0 340 / 161010.2 7.7-0.8
2019-Apr-10 19:00N 41°30' W 071°18'2 2.6 330 / 151010.0 7.1-0.1
2019-Apr-10 18:13N 41°32' W 071°19'2 8.9
2019-Apr-10 18:00N 41°30' W 071°18'2 7.2 330 / 201009.2 7.3-0.3
2019-Apr-10 17:43N 41°32' W 071°19'0 0.0
2019-Apr-10 17:19N 41°32' W 071°19'2 6.2
2019-Apr-10 17:00N 41°30' W 071°18'211.3 340 / 201008.8 6.5-0.1
2019-Apr-10 16:49N 41°32' W 071°19'2 2.4
2019-Apr-10 16:00N 41°30' W 071°18'0 0.0 340 / 181008.5 6.2 0.3
2019-Apr-10 15:00N 41°30' W 071°18'2 7.2 340 / 151008.1 5.9 1.4
2019-Apr-10 14:43N 41°32' W 071°19'2 2.8
2019-Apr-10 14:00N 41°30' W 071°18'2 2.3 1007.7 5.6 1.9
2019-Apr-10 13:07N 41°32' W 071°19'216.0
2019-Apr-10 13:00N 41°30' W 071°18'211.4 310 / 171007.0 7.6 2.0
2019-Apr-10 12:49N 41°32' W 071°19'0 0.0
2019-Apr-10 12:19N 41°32' W 071°19'2 6.2
2019-Apr-10 12:00N 41°30' W 071°18'2 5.3 300 / 11007.0 5.4 4.5
2019-Apr-10 11:37N 41°32' W 071°19'0 0.0
2019-Apr-10 10:31N 41°32' W 071°19'0 0.0
2019-Apr-10 09:43N 41°32' W 071°19'0 0.0
2019-Apr-10 09:25N 41°32' W 071°19'0 0.0
2019-Apr-10 08:55N 41°32' W 071°19'0 0.0
2019-Apr-10 07:31N 41°32' W 071°19'0 0.0
2019-Apr-10 07:19N 41°32' W 071°19'0 0.0
2019-Apr-10 06:25N 41°32' W 071°19'0 0.0
2019-Apr-10 05:25N 41°32' W 071°19'0 0.0
2019-Apr-10 04:31N 41°32' W 071°19'0 0.0
2019-Apr-10 00:49N 41°32' W 071°19'0 0.0
2019-Apr-09 22:43N 41°32' W 071°19'0 0.0
2019-Apr-09 21:01N 41°32' W 071°19'0 0.0
2019-Apr-09 18:25N 41°32' W 071°19'0 0.0
2019-Apr-09 17:19N 41°32' W 071°19'0 0.0
2019-Apr-09 16:37N 41°32' W 071°19'0 0.0
2019-Apr-09 16:01N 41°32' W 071°19'0 0.0
2019-Apr-09 15:43N 41°32' W 071°19'0 0.0
2019-Apr-09 15:25N 41°32' W 071°19'0 0.0
2019-Apr-09 14:49N 41°32' W 071°19'0 0.0
2019-Apr-09 14:25N 41°32' W 071°19'0 0.0
2019-Apr-09 13:55N 41°32' W 071°19'0 0.0
2019-Apr-09 13:19N 41°32' W 071°19'0 0.0
2019-Apr-09 12:55N 41°32' W 071°19'0 0.0
2019-Apr-09 12:25N 41°32' W 071°19'0 0.0
2019-Apr-09 11:43N 41°32' W 071°19'0 0.0
2019-Apr-09 11:13N 41°32' W 071°19'0 0.0
2019-Apr-09 10:55N 41°32' W 071°19'0 0.0
2019-Apr-09 10:25N 41°32' W 071°19'0 0.0
2019-Apr-09 08:43N 41°32' W 071°19'0 0.0
2019-Apr-09 08:25N 41°32' W 071°19'0 0.0
2019-Apr-09 07:43N 41°32' W 071°19'0 0.0
2019-Apr-09 06:25N 41°32' W 071°19'0 0.0
2019-Apr-08 22:01N 41°32' W 071°19'  
Track history (hours):
 
Tides and Currents Weather Stations Pressure Air Temp Water Temp Dewpoint Dewpoint Depression Visibility Wind Speed Wind Dir Waves Ship Positions

Oceanographic research ship Henry B. Bigelow (USA)

Ship's website: http://www.moc.noaa.gov/hb/

Last reported at 2019-Apr-18 20:00 UTC. Time now 2019-Apr-18 20:35 UTC.
Position N 40°30' W 067°30'.

Type: Other ship. MMSI: 369991000.

Wind from 140 at 16 knots

Barometer 1025.5 mb
Air temperature 7.7 ° C
Dewpoint 4.1 ° C
Water temperature 5.5 ° C

Date/timePositionNaut miles runAvg speedWind from/ knotsBaromVisibWave heightAir tempDewpointWater temp
2019-Apr-18 20:00N 40°30' W 067°30'1312.8 140 / 161025.5 7.7 4.1 5.5
2019-Apr-18 19:00N 40°42' W 067°24'0 0.0 150 / 161026.0 6.7 3.7 5.6
2019-Apr-18 18:00N 40°42' W 067°24'6 6.0 150 / 141026.7 6.6 3.5 5.7
2019-Apr-18 17:00N 40°48' W 067°24'6 6.0 130 / 141027.1 6.1 2.8 5.7
2019-Apr-18 16:00N 40°54' W 067°24'0 0.0 120 / 131028.0 6.1 2.7 5.7
2019-Apr-18 15:00N 40°54' W 067°24'1312.8 120 / 91028.7 4.9 2.1 5.6
2019-Apr-18 14:00N 41°06' W 067°30'1515.0 120 / 81028.4 4.7 2.2 5.7
2019-Apr-18 13:00N 41°18' W 067°42'0 0.0 120 / 61027.9 5.1 1.4 6.5
2019-Apr-18 12:00N 41°18' W 067°42'0 0.0 140 / 61027.8 5.4 1.3 6.5
2019-Apr-18 11:00N 41°18' W 067°42'5 4.5 160 / 41027.7 5.1 1.5 6.6
2019-Apr-18 10:00N 41°18' W 067°48'0 0.0 190 / 41027.2 4.8 1.6 6.6
2019-Apr-18 09:00N 41°18' W 067°48'1312.8 230 / 51026.5 4.7 1.7 6.6
2019-Apr-18 08:00N 41°06' W 067°54'1212.0 230 / 61026.1 4.6 1.2 6.3
2019-Apr-18 07:00N 40°54' W 067°54'6 6.0 210 / 61026.0 4.4 1.5 6.1
2019-Apr-18 06:00N 40°48' W 067°54'8 7.5 200 / 61026.1 5.6 1.5 5.8
2019-Apr-18 05:00N 40°54' W 068°00'0 0.0 220 / 111026.1 4.6 1.1 6.0
2019-Apr-18 04:00N 40°54' W 068°00'1515.0 200 / 101025.8 4.6 0.7 6.1
2019-Apr-18 03:00N 41°06' W 068°12'8 7.5 190 / 101025.1 4.7 1.3 6.2
2019-Apr-18 02:00N 41°12' W 068°18'0 0.0 170 / 61024.8 5.6 1.9 6.3
2019-Apr-18 01:00N 41°12' W 068°18'8 7.5 150 / 41024.6 5.3 1.2 6.3
2019-Apr-18 00:00N 41°06' W 068°24'0 0.0 060 / 21024.2 4.9 1.3 6.4
2019-Apr-17 23:00N 41°06' W 068°24'0 0.0 030 / 71023.5 6.0 0.9 6.4
2019-Apr-17 22:00N 41°06' W 068°24'8 7.5 020 / 111023.1 6.5 0.2 6.4
2019-Apr-17 21:00N 41°12' W 068°30'1110.8 010 / 111022.7 6.3-0.3 6.2
2019-Apr-17 20:00N 41°18' W 068°42'1110.8 350 / 91022.6 6.9 1.1 6.7
2019-Apr-17 19:00N 41°24' W 068°54'7 7.5 350 / 111022.0 6.8 2.1 6.3
2019-Apr-17 18:00N 41°30' W 069°00'1110.8 330 / 91022.0 6.6 2.3 6.4
2019-Apr-17 17:00N 41°36' W 069°12'1110.8 330 / 101021.3 6.9 2.6 6.1
2019-Apr-17 16:00N 41°42' W 069°24'6 6.0 340 / 121020.9 6.7 2.2 5.9
2019-Apr-17 15:00N 41°48' W 069°24'4 4.5 340 / 131020.6 5.5 1.7 5.8
2019-Apr-17 14:00N 41°48' W 069°30'4 4.5 310 / 121020.2 5.5 1.5 5.6
2019-Apr-17 13:00N 41°48' W 069°36'4 4.5 320 / 131019.8 5.9 1.3 5.6
2019-Apr-17 12:00N 41°48' W 069°42'0 0.0 330 / 141019.4 5.3 0.4 5.4
2019-Apr-17 11:00N 41°48' W 069°42'6 6.0 330 / 71018.8 7.1 0.4 5.4
2019-Apr-17 10:00N 41°54' W 069°42'0 0.0 310 / 171017.8 5.2 1.0 5.5
2019-Apr-17 09:00N 41°54' W 069°42'0 0.0 300 / 161017.4 5.3 0.6 5.5
2019-Apr-17 08:00N 41°54' W 069°42'4 4.5 300 / 201016.7 5.4 0.7 5.5
2019-Apr-17 07:00N 41°54' W 069°48'0 0.0 310 / 141016.8 8.5 0.5 5.3
2019-Apr-17 06:00N 41°54' W 069°48'7 7.5 290 / 161016.5 5.6-0.5 5.1
2019-Apr-17 05:00N 42°00' W 069°54'7 7.5 310 / 111016.4 6.4 0.5 5.0
2019-Apr-17 04:00N 42°06' W 070°00'0 0.0 320 / 121016.0 5.1 0.7 5.0
2019-Apr-17 03:00N 42°06' W 070°00'0 0.0 330 / 171015.3 8.1 0.4 5.0
2019-Apr-17 02:00N 42°06' W 070°00'7 7.5 350 / 231014.1 6.5 0.4 5.0
2019-Apr-17 01:00N 42°12' W 070°06'6 6.0 360 / 191013.4 6.2 1.1 5.1
2019-Apr-17 00:00N 42°06' W 070°06'0 0.0 1012.1 6.8-0.0 5.4
2019-Apr-16 23:00N 42°06' W 070°06'4 4.5 330 / 101011.4 8.2-2.0 5.7
2019-Apr-16 22:00N 42°06' W 070°12'6 6.0 020 / 61011.2 7.7-0.6 5.3
2019-Apr-16 21:00N 42°00' W 070°12'0 0.0 330 / 71010.6 8.6 0.1 7.1
2019-Apr-16 20:00N 42°00' W 070°12'1110.8 330 / 111010.2 8.4-0.7 7.2
2019-Apr-16 19:00N 41°54' W 070°24'0 0.0 300 / 101010.5 8.4-0.6 6.1
2019-Apr-16 18:00N 41°54' W 070°24'6 6.0 300 / 161010.5 8.9-2.1 6.1
2019-Apr-16 17:00N 41°48' W 070°24'4 4.5 320 / 141010.6 7.9-2.7 5.8
2019-Apr-16 16:00N 41°48' W 070°18'0 0.0 300 / 161010.7 6.4-2.0 5.7
2019-Apr-16 15:00N 41°48' W 070°18'6 6.0 310 / 171010.6 6.0-1.8 5.7
2019-Apr-16 14:00N 41°54' W 070°18'0 0.0 300 / 181009.9 5.7-2.7 5.6
2019-Apr-16 13:00N 41°54' W 070°18'0 0.0 290 / 281008.6 5.8-2.4 5.5
2019-Apr-16 12:00N 41°54' W 070°18'6 6.0 300 / 241008.0 4.8-2.4 5.5
2019-Apr-16 11:00N 42°00' W 070°18'7 7.5 300 / 291007.1 5.2-2.2 5.3
2019-Apr-16 10:00N 42°06' W 070°12'9 8.9 300 / 271005.5 5.1-1.5 5.2
2019-Apr-16 09:00N 42°06' W 070°00'1312.8 290 / 291004.2 5.1-1.5 5.0
2019-Apr-16 08:00N 41°54' W 069°54'4 4.5 300 / 261003.4 5.6-1.5 5.5
2019-Apr-16 07:00N 41°54' W 069°48'0 0.0 290 / 131002.8 6.1-1.3 5.5
2019-Apr-16 06:00N 41°54' W 069°48'0 0.0 290 / 271001.5 5.9-1.0 5.6
2019-Apr-16 05:00N 41°54' W 069°48'7 7.5 280 / 261000.8 6.2-0.3 5.6
2019-Apr-16 04:00N 42°00' W 069°54'4 4.5 290 / 25999.9 6.5-0.1 5.7
2019-Apr-16 03:00N 42°00' W 070°00'0 0.0 270 / 25999.0 7.0 0.8 5.8
2019-Apr-16 02:00N 42°00' W 070°00'0 0.0 290 / 25997.6 7.4 0.8 5.6
2019-Apr-16 01:00N 42°00' W 070°00'7 7.5 290 / 22996.4 8.4 2.0 5.6
2019-Apr-16 00:00N 41°54' W 069°54'6 6.0 280 / 31993.9 9.5 1.7 5.5
2019-Apr-15 23:00N 42°00' W 069°54'6 6.0 280 / 31992.5 10.2 5.4 5.7
2019-Apr-15 22:00N 41°54' W 069°54'0 0.0 270 / 19990.9 10.5 8.2 5.5
2019-Apr-15 21:00N 41°54' W 069°54'0 0.0 250 / 23989.2 11.710.4 5.5
2019-Apr-15 20:00N 41°54' W 069°54'0 0.0 250 / 20989.8 13.411.9 5.6
2019-Apr-15 19:00N 41°54' W 069°54'0 0.0 230 / 26990.2 13.012.6 5.6
2019-Apr-15 18:00N 41°54' W 069°54'0 0.0 210 / 21990.6 12.6 6.2
2019-Apr-15 17:00N 41°54' W 069°54'0 0.0 250 / 13991.4 11.5 5.9
2019-Apr-15 16:00N 41°54' W 069°54'0 0.0 160 / 8990.7 8.8 5.5
2019-Apr-15 15:00N 41°54' W 069°54'6 6.0 140 / 31991.3 8.5 5.6
2019-Apr-15 14:00N 41°48' W 069°54'0 0.0 120 / 15994.8 10.1 5.5
2019-Apr-15 13:00N 41°48' W 069°54'0 0.0 310 / 19997.2 11.3 5.6
2019-Apr-15 12:00N 41°48' W 069°54'0 0.0 190 / 27993.9 10.3 5.6
2019-Apr-15 11:00N 41°48' W 069°54'6 6.0 190 / 25995.4 11.2 5.5
2019-Apr-15 10:00N 41°42' W 069°54'0 0.0 190 / 24996.9 10.6 5.2
2019-Apr-15 09:00N 41°42' W 069°54'6 6.0 200 / 17998.0 9.3 5.4
2019-Apr-15 08:00N 41°48' W 069°54'7 7.5 190 / 15999.3 9.3 5.7
2019-Apr-15 07:00N 41°42' W 069°48'1515.0 180 / 211001.1 8.2 5.3
2019-Apr-15 06:00N 41°30' W 069°36'6 6.0 180 / 241002.3 9.1 5.1
2019-Apr-15 05:00N 41°24' W 069°36'0 0.0 200 / 241004.1 9.6 5.2
2019-Apr-15 04:00N 41°24' W 069°36'0 0.0 180 / 201005.3 8.9 5.2
2019-Apr-15 03:00N 41°24' W 069°36'9 9.0 180 / 181006.3 8.8 5.2
2019-Apr-15 02:00N 41°24' W 069°24'5 4.5 180 / 151007.9 7.8 5.3
2019-Apr-15 01:00N 41°24' W 069°18'0 0.0 180 / 181008.9 8.5 6.1
2019-Apr-15 00:00N 41°24' W 069°18'6 6.0 180 / 151009.7 8.8 5.8
2019-Apr-14 23:00N 41°18' W 069°18'8 7.5 180 / 171010.1 8.8 5.5
2019-Apr-14 22:00N 41°12' W 069°24'0 0.0 160 / 171010.8 8.1 5.4
2019-Apr-14 21:00N 41°12' W 069°24'0 0.0 170 / 121011.5 9.9 5.4
2019-Apr-14 20:00N 41°12' W 069°24'0 0.0 170 / 141012.3 9.2 5.3
2019-Apr-14 19:00N 41°12' W 069°24'0 0.0 180 / 61013.5 7.5 5.5
2019-Apr-14 18:00N 41°12' W 069°24'0 0.0 210 / 71014.2 6.8 5.6
2019-Apr-14 17:00N 41°12' W 069°24'6 6.0 220 / 101014.7 6.2 5.4
2019-Apr-14 16:00N 41°06' W 069°24'0 0.0 190 / 91015.1 7.6 5.4
2019-Apr-14 15:00N 41°06' W 069°24'6 6.0 270 / 21015.9 7.0 5.4
2019-Apr-14 14:00N 41°12' W 069°24'0 0.0 220 / 61015.9 6.1 5.4
2019-Apr-14 13:00N 41°12' W 069°24'0 0.0 240 / 91016.1 6.0 5.4
2019-Apr-14 12:00N 41°12' W 069°24'8 7.5 230 / 111016.3 5.6 5.3
2019-Apr-14 11:00N 41°06' W 069°18'0 0.0 220 / 141016.3 5.9 5.4
2019-Apr-14 10:00N 41°06' W 069°18'0 0.0 230 / 121015.6 6.4 5.4
2019-Apr-14 09:00N 41°06' W 069°18'8 7.5 250 / 121015.0 6.6 5.4
2019-Apr-14 08:00N 41°12' W 069°12'8 7.5 250 / 131015.2 6.6 5.4
2019-Apr-14 07:00N 41°18' W 069°06'0 0.0 240 / 171015.2 7.0 5.5
2019-Apr-14 06:00N 41°18' W 069°06'1312.8 240 / 181015.7 7.0 5.5
2019-Apr-14 05:00N 41°06' W 069°00'5 4.5 220 / 151016.3 6.7 5.9
2019-Apr-14 04:00N 41°06' W 068°54'6 6.0 240 / 141016.6 7.8 5.8
2019-Apr-14 03:00N 41°12' W 068°54'5 4.5 210 / 161016.7 8.1 6.2
2019-Apr-14 02:00N 41°12' W 068°48'0 0.0 210 / 151017.4 7.8 6.1
2019-Apr-14 01:00N 41°12' W 068°48'1312.8 210 / 221017.5 8.1 5.7
2019-Apr-14 00:00N 41°00' W 068°42'8 7.5 220 / 181018.3 7.6 7.6 5.9
2019-Apr-13 23:00N 40°54' W 068°36'5 4.5 200 / 221018.1 8.7 8.7 5.9
2019-Apr-13 22:00N 40°54' W 068°30'1212.0 210 / 221018.7 9.2 9.1 5.8
2019-Apr-13 21:00N 40°42' W 068°30'6 6.0 200 / 201019.3 13.011.1 5.7
2019-Apr-13 20:00N 40°36' W 068°30'5 4.6 190 / 201019.6 9.0 9.0 5.8
2019-Apr-13 19:00N 40°36' W 068°24'5 4.6 180 / 201020.1 8.9 8.8 5.8
2019-Apr-13 18:00N 40°36' W 068°18'5 4.6 180 / 201021.1 9.4 9.4 5.9
2019-Apr-13 17:00N 40°36' W 068°24'8 7.5 190 / 181022.0 9.4 9.1 5.9
2019-Apr-13 16:00N 40°30' W 068°18'0 0.0 180 / 191023.3 9.8 9.4 5.5
2019-Apr-13 15:00N 40°30' W 068°18'6 6.0 190 / 181023.7 9.3 9.0 5.4
2019-Apr-13 14:00N 40°24' W 068°18'6 6.0 180 / 161024.5 10.4 9.9 5.1
2019-Apr-13 13:00N 40°18' W 068°18'0 0.0 180 / 171024.9 10.710.4 8.1
2019-Apr-13 12:00N 40°18' W 068°18'6 6.0 190 / 141025.1 10.510.2 8.0
2019-Apr-13 11:00N 40°12' W 068°18'8 7.5 200 / 131024.9 11.110.8 7.7
2019-Apr-13 10:00N 40°18' W 068°24'1110.9 200 / 171024.3 10.510.5 8.1
2019-Apr-13 09:00N 40°12' W 068°36'8 7.5 210 / 171023.8 8.4 8.4 5.2
2019-Apr-13 08:00N 40°18' W 068°42'0 0.0 190 / 171024.1 9.0 9.0 5.4
2019-Apr-13 07:00N 40°18' W 068°42'1312.8 200 / 171023.8 8.8 8.8 5.4
2019-Apr-13 06:00N 40°30' W 068°36'8 7.5 200 / 181023.9 8.3 8.3 5.7
2019-Apr-13 05:00N 40°36' W 068°42'9 9.1 200 / 201024.4 8.3 8.3 5.8
2019-Apr-13 04:00N 40°36' W 068°54'1110.9 190 / 171024.3 7.9 7.9 5.9
2019-Apr-13 03:00N 40°42' W 069°06'0 0.0 180 / 171024.5 8.0 7.9 5.7
2019-Apr-13 02:00N 40°42' W 069°06'8 7.5 180 / 161024.9 8.0 7.4 5.8
2019-Apr-13 01:00N 40°48' W 069°00'5 4.5 160 / 151025.3 7.6 6.9 5.7
2019-Apr-13 00:00N 40°48' W 069°06'5 4.5 190 / 151025.8 7.1 6.8 5.7
2019-Apr-12 23:00N 40°48' W 069°12'8 7.5 180 / 161025.3 6.7 6.5 5.6
2019-Apr-12 22:00N 40°42' W 069°18'6 6.0 170 / 111025.6 6.9 6.3 5.6
2019-Apr-12 21:00N 40°36' W 069°18'6 6.0 170 / 131026.1 8.5 6.6 5.9
2019-Apr-12 20:00N 40°30' W 069°18'0 0.0 170 / 121026.8 6.9 5.4 6.1
2019-Apr-12 19:00N 40°30' W 069°18'0 0.0 140 / 111027.4 6.2 4.7 6.1
2019-Apr-12 18:00N 40°30' W 069°18'9 9.1 130 / 111028.1 5.6 4.1 6.0
2019-Apr-12 17:00N 40°30' W 069°30'5 4.6 150 / 121028.2 5.4 3.7 5.9
2019-Apr-12 16:00N 40°30' W 069°36'0 0.0 140 / 141028.6 5.2 3.0 5.9
2019-Apr-12 15:00N 40°30' W 069°36'6 6.0 130 / 111029.0 5.1 2.6 5.9
2019-Apr-12 14:00N 40°36' W 069°36'0 0.0 110 / 111029.1 4.8 1.4 5.7
2019-Apr-12 13:00N 40°36' W 069°36'5 4.6 130 / 91029.0 4.8 0.8 5.8
2019-Apr-12 12:00N 40°36' W 069°42'6 6.0 120 / 71028.9 5.1-0.5 5.9
2019-Apr-12 11:00N 40°30' W 069°42'8 7.5 150 / 91028.5 4.8-0.4 5.9
2019-Apr-12 10:00N 40°24' W 069°48'0 0.0 130 / 91028.0 4.8-1.3 6.0
2019-Apr-12 09:00N 40°24' W 069°48'5 4.6 130 / 81027.8 5.2-1.0 6.1
2019-Apr-12 08:00N 40°24' W 069°54'6 6.0 140 / 61027.8 4.7-0.9 6.2
2019-Apr-12 07:00N 40°30' W 069°54'1312.8 190 / 51027.3 4.7-1.0 5.9
2019-Apr-12 06:00N 40°42' W 070°00'5 4.5 220 / 61027.3 4.4-2.0 6.0
2019-Apr-12 05:00N 40°42' W 070°06'0 0.0 200 / 31027.7 4.4-2.5 5.9
2019-Apr-12 04:00N 40°42' W 070°06'1110.9 190 / 51026.9 4.3-2.2 6.1
2019-Apr-12 03:00N 40°36' W 070°18'8 7.5 180 / 21027.6 4.8-2.9 6.0
2019-Apr-12 02:00N 40°30' W 070°12'1110.9 230 / 51027.4 4.4-3.4 6.0
2019-Apr-12 01:00N 40°36' W 070°24'1110.9 180 / 51026.5 4.4-3.6 6.2
2019-Apr-12 00:00N 40°42' W 070°36'8 7.5 230 / 51026.5 4.7-2.5 6.0
2019-Apr-11 23:00N 40°36' W 070°30'1515.1 270 / 61026.1 4.4-3.2 6.1
2019-Apr-11 22:00N 40°48' W 070°42'6 6.0 240 / 111025.2 4.4-3.0 5.8
2019-Apr-11 21:00N 40°42' W 070°42'8 7.5 250 / 91024.7 4.0-4.4 6.1
2019-Apr-11 20:00N 40°48' W 070°48'1110.9 260 / 81024.6 3.9-5.5 6.0
2019-Apr-11 19:00N 40°54' W 071°00'8 7.5 250 / 81024.5 4.0-6.0 6.5
2019-Apr-11 18:00N 41°00' W 071°06'1110.9 240 / 61024.3 4.0-5.8 6.9
2019-Apr-11 17:00N 41°06' W 071°18'1312.8 220 / 51024.4 4.0-6.3 6.8
2019-Apr-11 16:00N 41°18' W 071°24'6 6.0 220 / 41024.2 4.8-7.2 6.8
2019-Apr-11 15:00N 41°24' W 071°24'9 9.7 010 / 41024.2 5.9-8.5 6.9
2019-Apr-11 14:06N 41°32' W 071°19'218.5
2019-Apr-11 14:00N 41°30' W 071°18'0 0.0 350 / 71024.1 4.7-6.9
2019-Apr-11 12:00N 41°30' W 071°18'226.8 280 / 81023.2 6.2-5.1
2019-Apr-11 11:55N 41°32' W 071°19'0 0.0
2019-Apr-11 11:19N 41°32' W 071°19'2 6.1
2019-Apr-11 11:00N 41°30' W 071°18'227.1 270 / 61022.7 3.5-5.4
2019-Apr-11 10:55N 41°32' W 071°19'0 0.0
2019-Apr-11 10:25N 41°32' W 071°19'2 4.7
2019-Apr-11 10:00N 41°30' W 071°18'2 3.5 260 / 31021.3 1.8-5.7
2019-Apr-11 09:25N 41°32' W 071°19'2 4.7
2019-Apr-11 09:00N 41°30' W 071°18'226.8 340 / 121020.0 2.6-5.0
2019-Apr-11 08:55N 41°32' W 071°19'0 0.0
2019-Apr-11 08:19N 41°32' W 071°19'2 6.1
2019-Apr-11 08:00N 41°30' W 071°18'226.9 350 / 171019.1 2.6-5.0
2019-Apr-11 07:55N 41°32' W 071°19'2 2.2
2019-Apr-11 07:00N 41°30' W 071°18'227.0 350 / 161019.2 2.4-4.2
2019-Apr-11 06:55N 41°32' W 071°19'2 2.2
2019-Apr-11 06:00N 41°30' W 071°18'2 5.3 350 / 151019.1 2.6-4.5
2019-Apr-11 05:37N 41°32' W 071°19'0 0.0
2019-Apr-11 05:25N 41°32' W 071°19'2 4.7
2019-Apr-11 05:00N 41°30' W 071°18'2 7.3 330 / 201018.9 2.6-5.3
2019-Apr-11 04:43N 41°32' W 071°19'0 0.0
2019-Apr-11 04:13N 41°32' W 071°19'2 8.9
2019-Apr-11 04:00N 41°30' W 071°18'0 0.0 360 / 231018.2 2.6-5.0
2019-Apr-11 03:00N 41°30' W 071°18'227.0 360 / 231017.0 3.2-3.5
2019-Apr-11 02:55N 41°32' W 071°19'2 2.2
2019-Apr-11 02:00N 41°30' W 071°18'2 4.2 1016.3 4.6-2.9
2019-Apr-11 01:31N 41°32' W 071°19'2 3.8
2019-Apr-11 01:00N 41°30' W 071°18'0 0.0 350 / 141015.5 5.3-2.9
2019-Apr-11 00:00N 41°30' W 071°18'2 3.0 010 / 131014.0 6.1-1.2
2019-Apr-10 23:19N 41°32' W 071°19'2 6.2
2019-Apr-10 23:00N 41°30' W 071°18'2 3.0 350 / 151012.9 6.7-2.0
2019-Apr-10 22:19N 41°32' W 071°19'2 6.2
2019-Apr-10 22:00N 41°30' W 071°18'0 0.0 350 / 161012.2 7.1-1.6
2019-Apr-10 21:00N 41°30' W 071°18'0 0.0 350 / 191011.1 7.5-0.8
2019-Apr-10 20:00N 41°30' W 071°18'0 0.0 340 / 161010.2 7.7-0.8
2019-Apr-10 19:00N 41°30' W 071°18'2 2.6 330 / 151010.0 7.1-0.1
2019-Apr-10 18:13N 41°32' W 071°19'2 8.9
2019-Apr-10 18:00N 41°30' W 071°18'2 7.2 330 / 201009.2 7.3-0.3
2019-Apr-10 17:43N 41°32' W 071°19'0 0.0
2019-Apr-10 17:19N 41°32' W 071°19'2 6.2
2019-Apr-10 17:00N 41°30' W 071°18'211.3 340 / 201008.8 6.5-0.1
2019-Apr-10 16:49N 41°32' W 071°19'2 2.4
2019-Apr-10 16:00N 41°30' W 071°18'0 0.0 340 / 181008.5 6.2 0.3
2019-Apr-10 15:00N 41°30' W 071°18'2 7.2 340 / 151008.1 5.9 1.4
2019-Apr-10 14:43N 41°32' W 071°19'2 2.8
2019-Apr-10 14:00N 41°30' W 071°18'2 2.3 1007.7 5.6 1.9
2019-Apr-10 13:07N 41°32' W 071°19'216.0
2019-Apr-10 13:00N 41°30' W 071°18'211.4 310 / 171007.0 7.6 2.0
2019-Apr-10 12:49N 41°32' W 071°19'0 0.0
2019-Apr-10 12:19N 41°32' W 071°19'2 6.2
2019-Apr-10 12:00N 41°30' W 071°18'2 5.3 300 / 11007.0 5.4 4.5
2019-Apr-10 11:37N 41°32' W 071°19'0 0.0
2019-Apr-10 10:31N 41°32' W 071°19'0 0.0
2019-Apr-10 09:43N 41°32' W 071°19'0 0.0
2019-Apr-10 09:25N 41°32' W 071°19'0 0.0
2019-Apr-10 08:55N 41°32' W 071°19'0 0.0
2019-Apr-10 07:31N 41°32' W 071°19'0 0.0
2019-Apr-10 07:19N 41°32' W 071°19'0 0.0
2019-Apr-10 06:25N 41°32' W 071°19'0 0.0
2019-Apr-10 05:25N 41°32' W 071°19'0 0.0
2019-Apr-10 04:31N 41°32' W 071°19'0 0.0
2019-Apr-10 00:49N 41°32' W 071°19'0 0.0
2019-Apr-09 22:43N 41°32' W 071°19'0 0.0
2019-Apr-09 21:01N 41°32' W 071°19'0 0.0
2019-Apr-09 18:25N 41°32' W 071°19'0 0.0
2019-Apr-09 17:19N 41°32' W 071°19'0 0.0
2019-Apr-09 16:37N 41°32' W 071°19'0 0.0
2019-Apr-09 16:01N 41°32' W 071°19'0 0.0
2019-Apr-09 15:43N 41°32' W 071°19'0 0.0
2019-Apr-09 15:25N 41°32' W 071°19'0 0.0
2019-Apr-09 14:49N 41°32' W 071°19'0 0.0
2019-Apr-09 14:25N 41°32' W 071°19'0 0.0
2019-Apr-09 13:55N 41°32' W 071°19'0 0.0
2019-Apr-09 13:19N 41°32' W 071°19'0 0.0
2019-Apr-09 12:55N 41°32' W 071°19'0 0.0
2019-Apr-09 12:25N 41°32' W 071°19'0 0.0
2019-Apr-09 11:43N 41°32' W 071°19'0 0.0
2019-Apr-09 11:13N 41°32' W 071°19'0 0.0
2019-Apr-09 10:55N 41°32' W 071°19'0 0.0
2019-Apr-09 10:25N 41°32' W 071°19'0 0.0
2019-Apr-09 08:43N 41°32' W 071°19'0 0.0
2019-Apr-09 08:25N 41°32' W 071°19'0 0.0
2019-Apr-09 07:43N 41°32' W 071°19'0 0.0
2019-Apr-09 06:25N 41°32' W 071°19'0 0.0
2019-Apr-08 22:01N 41°32' W 071°19'  

Dump ship's entire track history